createdAt,value
2023-07-06T00:00:20.677Z,2.85
2023-07-06T00:02:47.060Z,3.04
2023-07-06T00:05:13.426Z,2.62
2023-07-06T00:07:39.835Z,2.86
2023-07-06T00:10:07.536Z,2.65
2023-07-06T00:12:33.883Z,2.90
2023-07-06T00:15:00.248Z,2.97
2023-07-06T00:17:26.616Z,2.90
2023-07-06T00:19:52.966Z,3.01
2023-07-06T00:22:19.336Z,2.98
2023-07-06T00:24:45.687Z,2.81
2023-07-06T00:27:12.037Z,3.02
2023-07-06T00:29:38.396Z,2.93
2023-07-06T00:32:04.758Z,2.91
2023-07-06T00:34:31.118Z,3.05
2023-07-06T00:36:57.481Z,2.94
2023-07-06T00:39:23.836Z,2.84
2023-07-06T00:41:51.829Z,2.94
2023-07-06T00:44:18.471Z,3.23
2023-07-06T00:46:44.839Z,2.94
2023-07-06T00:49:11.196Z,3.09
2023-07-06T00:51:37.563Z,2.97
2023-07-06T00:54:03.930Z,2.87
2023-07-06T00:56:30.277Z,3.26
2023-07-06T00:58:56.681Z,2.94
2023-07-06T01:01:23.048Z,3.08
2023-07-06T01:03:49.514Z,3.04
2023-07-06T01:06:15.971Z,2.96
2023-07-06T01:08:42.318Z,3.18
2023-07-06T01:11:08.671Z,3.20
2023-07-06T01:13:35.099Z,3.12
2023-07-06T01:16:01.562Z,3.10
2023-07-06T01:18:28.078Z,2.84
2023-07-06T01:20:54.445Z,2.89
2023-07-06T01:23:20.801Z,2.93
2023-07-06T01:25:47.148Z,2.84
2023-07-06T01:28:13.627Z,2.91
2023-07-06T01:30:40.492Z,2.69
2023-07-06T01:33:07.994Z,2.50
2023-07-06T01:35:34.345Z,2.55
2023-07-06T01:38:00.699Z,2.80
2023-07-06T01:40:27.061Z,2.68
2023-07-06T01:42:53.434Z,2.75
2023-07-06T01:45:19.791Z,2.53
2023-07-06T01:47:46.178Z,2.93
2023-07-06T01:50:12.574Z,2.54
2023-07-06T01:52:38.934Z,2.90
2023-07-06T01:55:05.325Z,2.51
2023-07-06T01:57:31.958Z,2.84
2023-07-06T02:00:00.198Z,2.92
2023-07-06T02:02:33.739Z,2.56
2023-07-06T02:05:00.164Z,2.79
2023-07-06T02:07:26.509Z,2.63
2023-07-06T02:09:52.940Z,2.63
2023-07-06T02:12:19.318Z,2.71
2023-07-06T02:14:45.679Z,2.67
2023-07-06T02:17:12.046Z,3.07
2023-07-06T02:19:38.411Z,3.01
2023-07-06T02:22:04.753Z,3.44
2023-07-06T02:24:31.111Z,3.06
2023-07-06T02:26:57.487Z,3.14
2023-07-06T02:29:23.838Z,3.07
2023-07-06T02:31:50.190Z,3.14
2023-07-06T02:34:16.548Z,2.74
2023-07-06T02:36:42.898Z,2.79
2023-07-06T02:39:09.225Z,3.17
2023-07-06T02:41:35.594Z,3.05
2023-07-06T02:44:01.936Z,3.21
2023-07-06T02:46:28.305Z,2.98
2023-07-06T02:48:54.889Z,2.82
2023-07-06T02:51:21.234Z,2.84
2023-07-06T02:53:47.571Z,3.13
2023-07-06T02:56:13.933Z,3.05
2023-07-06T02:58:40.277Z,2.96
2023-07-06T03:01:06.614Z,3.19
2023-07-06T03:03:33.050Z,3.21
2023-07-06T03:05:59.534Z,3.19
2023-07-06T03:08:26.131Z,3.38
2023-07-06T03:10:52.546Z,2.96
2023-07-06T03:13:18.972Z,2.83
2023-07-06T03:15:45.379Z,3.09
2023-07-06T03:18:11.764Z,3.01
2023-07-06T03:20:38.125Z,3.25
2023-07-06T03:23:04.481Z,3.21
2023-07-06T03:25:30.860Z,3.08
2023-07-06T03:27:57.213Z,3.33
2023-07-06T03:30:23.556Z,3.36
2023-07-06T03:32:49.944Z,3.38
2023-07-06T03:35:16.344Z,3.38
2023-07-06T03:37:42.792Z,3.26
2023-07-06T03:40:09.174Z,3.29
2023-07-06T03:42:35.522Z,3.58
2023-07-06T03:45:01.896Z,3.47
2023-07-06T03:47:28.349Z,3.75
2023-07-06T03:49:54.756Z,3.43
2023-07-06T03:52:21.108Z,3.42
2023-07-06T03:54:47.473Z,3.40
2023-07-06T03:57:13.819Z,3.42
2023-07-06T03:59:41.289Z,3.50
2023-07-06T04:02:07.654Z,3.45
2023-07-06T04:04:33.999Z,3.34
2023-07-06T04:07:00.348Z,4.07
2023-07-06T04:09:26.712Z,4.80
2023-07-06T04:11:53.057Z,4.31
2023-07-06T04:14:19.404Z,3.52
2023-07-06T04:16:45.798Z,3.65
2023-07-06T04:19:12.156Z,3.52
2023-07-06T04:21:38.502Z,3.38
2023-07-06T04:24:04.866Z,3.72
2023-07-06T04:26:31.210Z,3.76
2023-07-06T04:28:57.547Z,3.71
2023-07-06T04:31:23.971Z,3.57
2023-07-06T04:33:50.385Z,3.47
2023-07-06T04:36:16.732Z,3.84
2023-07-06T04:38:43.100Z,4.02
2023-07-06T04:41:09.449Z,3.77
2023-07-06T04:43:37.920Z,3.72
2023-07-06T04:46:04.287Z,3.92
2023-07-06T04:48:30.656Z,3.64
2023-07-06T04:50:57.071Z,3.85
2023-07-06T04:53:23.435Z,3.77
2023-07-06T04:55:49.775Z,3.95
2023-07-06T04:58:16.123Z,3.92
2023-07-06T05:00:42.515Z,3.79
2023-07-06T05:03:09.114Z,3.75
2023-07-06T05:05:35.585Z,4.17
2023-07-06T05:08:01.977Z,4.19
2023-07-06T05:10:28.327Z,4.07
2023-07-06T05:12:54.704Z,3.86
2023-07-06T05:15:21.096Z,4.18
2023-07-06T05:17:47.561Z,4.18
2023-07-06T05:20:13.988Z,3.89
2023-07-06T05:22:40.396Z,4.06
2023-07-06T05:25:06.749Z,4.08
2023-07-06T05:27:33.078Z,3.97
2023-07-06T05:29:59.451Z,4.39
2023-07-06T05:32:25.831Z,4.67
2023-07-06T05:34:52.207Z,4.62
2023-07-06T05:37:34.048Z,4.44
2023-07-06T05:40:01.938Z,4.55
2023-07-06T05:42:28.294Z,4.59
2023-07-06T05:44:54.634Z,4.54
2023-07-06T05:47:20.999Z,4.63
2023-07-06T05:49:47.368Z,4.82
2023-07-06T05:52:13.728Z,4.76
2023-07-06T05:54:40.103Z,4.77
2023-07-06T05:57:10.012Z,4.65
2023-07-06T05:59:36.379Z,4.83
2023-07-06T06:02:02.770Z,4.81
2023-07-06T06:04:29.211Z,4.91
2023-07-06T06:06:55.589Z,4.93
2023-07-06T06:09:21.936Z,5.02
2023-07-06T06:11:48.291Z,5.17
2023-07-06T06:14:14.645Z,5.05
2023-07-06T06:16:40.995Z,4.82
2023-07-06T06:19:07.371Z,4.88
2023-07-06T06:21:33.720Z,5.10
2023-07-06T06:24:00.085Z,4.93
2023-07-06T06:26:28.276Z,5.04
2023-07-06T06:28:55.881Z,5.11
2023-07-06T06:31:22.259Z,4.88
2023-07-06T06:33:48.666Z,5.27
2023-07-06T06:36:15.019Z,5.00
2023-07-06T06:38:41.481Z,4.76
2023-07-06T06:41:07.848Z,4.72
2023-07-06T06:43:34.209Z,5.05
2023-07-06T06:46:00.876Z,5.01
2023-07-06T06:48:27.437Z,5.35
2023-07-06T06:50:53.777Z,5.48
2023-07-06T06:53:20.133Z,5.23
2023-07-06T06:55:46.504Z,5.09
2023-07-06T06:58:12.860Z,5.52
2023-07-06T07:00:39.198Z,5.69
2023-07-06T07:03:05.553Z,5.62
2023-07-06T07:05:31.897Z,5.50
2023-07-06T07:07:58.244Z,5.88
2023-07-06T07:10:24.740Z,5.92
2023-07-06T07:12:51.112Z,5.90
2023-07-06T07:15:17.446Z,5.71
2023-07-06T07:17:43.838Z,5.27
2023-07-06T07:20:10.246Z,5.61
2023-07-06T07:22:36.597Z,6.11
2023-07-06T07:25:03.029Z,5.88
2023-07-06T07:27:29.516Z,6.16
2023-07-06T07:29:55.889Z,5.77
2023-07-06T07:32:22.385Z,6.23
2023-07-06T07:34:48.754Z,6.03
2023-07-06T07:37:15.101Z,5.86
2023-07-06T07:39:41.563Z,6.03
2023-07-06T07:42:07.939Z,6.33
2023-07-06T07:44:34.289Z,6.19
2023-07-06T07:47:00.651Z,6.21
2023-07-06T07:49:27.019Z,6.73
2023-07-06T07:51:53.379Z,6.44
2023-07-06T07:54:19.757Z,5.97
2023-07-06T07:56:46.119Z,6.06
2023-07-06T07:59:13.305Z,6.54
2023-07-06T08:01:41.304Z,6.42
2023-07-06T08:04:07.897Z,6.48
2023-07-06T08:06:34.291Z,6.46
2023-07-06T08:09:00.671Z,5.91
2023-07-06T08:11:27.029Z,6.03
2023-07-06T08:13:53.400Z,5.97
2023-07-06T08:16:19.837Z,6.05
2023-07-06T08:18:46.244Z,6.10
2023-07-06T08:21:40.013Z,6.04
2023-07-06T08:23:59.404Z,5.99
2023-07-06T08:26:25.764Z,6.41
2023-07-06T08:28:52.654Z,6.18
2023-07-06T08:31:21.439Z,6.28
2023-07-06T08:33:48.012Z,6.02
2023-07-06T08:36:14.351Z,6.18
2023-07-06T08:38:40.825Z,6.09
2023-07-06T08:41:07.160Z,5.79
2023-07-06T08:43:33.519Z,6.02
2023-07-06T08:45:59.939Z,6.02
2023-07-06T08:48:26.295Z,6.00
2023-07-06T08:50:52.642Z,5.48
2023-07-06T08:53:19.008Z,4.83
2023-07-06T08:55:45.390Z,4.55
2023-07-06T08:58:11.836Z,4.59
2023-07-06T09:00:38.210Z,5.23
2023-07-06T09:03:04.625Z,5.85
2023-07-06T09:05:31.031Z,5.05
2023-07-06T09:07:57.499Z,4.68
2023-07-06T09:10:26.164Z,4.09
2023-07-06T09:12:53.201Z,4.36
2023-07-06T09:15:19.583Z,4.19
2023-07-06T09:17:45.977Z,3.86
2023-07-06T09:20:12.330Z,3.77
2023-07-06T09:22:38.713Z,3.76
2023-07-06T09:25:05.094Z,4.14
2023-07-06T09:27:31.502Z,3.87
2023-07-06T09:29:57.970Z,4.00
2023-07-06T09:32:24.353Z,3.56
2023-07-06T09:34:50.719Z,3.89
2023-07-06T09:37:17.078Z,3.89
2023-07-06T09:39:43.433Z,3.84
2023-07-06T09:42:09.798Z,3.34
2023-07-06T09:44:36.232Z,3.27
2023-07-06T09:47:02.743Z,3.18
2023-07-06T09:49:29.117Z,2.94
2023-07-06T09:51:55.495Z,3.74
2023-07-06T09:54:21.837Z,3.95
2023-07-06T09:56:48.196Z,4.58
2023-07-06T09:59:14.556Z,4.74
2023-07-06T10:01:40.952Z,4.74
2023-07-06T10:04:07.293Z,4.33
2023-07-06T10:06:33.675Z,4.50
2023-07-06T10:09:00.007Z,4.61
2023-07-06T10:11:26.382Z,4.50
2023-07-06T10:13:52.827Z,4.16
2023-07-06T10:16:19.251Z,4.01
2023-07-06T10:18:45.612Z,3.49
2023-07-06T10:21:11.982Z,3.59
2023-07-06T10:23:38.338Z,3.90
2023-07-06T10:26:04.903Z,3.89
2023-07-06T10:28:31.623Z,3.55
2023-07-06T10:30:58.014Z,4.28
2023-07-06T10:33:24.378Z,3.14
2023-07-06T10:35:50.742Z,3.40
2023-07-06T10:38:17.091Z,3.20
2023-07-06T10:40:43.452Z,3.29
2023-07-06T10:43:09.961Z,4.07
2023-07-06T10:45:36.366Z,3.51
2023-07-06T10:48:02.744Z,4.28
2023-07-06T10:50:29.197Z,3.94
2023-07-06T10:52:55.541Z,3.87
2023-07-06T10:55:21.892Z,3.72
2023-07-06T10:57:48.257Z,3.55
2023-07-06T11:00:14.608Z,3.51
2023-07-06T11:02:41.052Z,3.78
2023-07-06T11:05:07.531Z,3.69
2023-07-06T11:07:33.882Z,3.53
2023-07-06T11:10:00.207Z,3.14
2023-07-06T11:12:26.576Z,3.03
2023-07-06T11:14:52.925Z,3.37
2023-07-06T11:17:19.337Z,3.23
2023-07-06T11:19:45.740Z,3.16
2023-07-06T11:22:12.109Z,3.46
2023-07-06T11:24:38.493Z,3.53
2023-07-06T11:27:04.865Z,3.47
2023-07-06T11:29:31.210Z,3.25
2023-07-06T11:31:57.649Z,3.59
2023-07-06T11:34:24.036Z,3.21
2023-07-06T11:36:50.398Z,3.18
2023-07-06T11:39:16.749Z,3.09
2023-07-06T11:41:43.119Z,3.03
2023-07-06T11:44:09.490Z,2.90
2023-07-06T11:46:35.922Z,3.19
2023-07-06T11:49:02.349Z,3.01
2023-07-06T11:51:28.755Z,3.34
2023-07-06T11:53:55.107Z,3.33
2023-07-06T11:56:21.536Z,3.12
2023-07-06T11:58:47.862Z,3.13
2023-07-06T12:01:14.230Z,3.00
2023-07-06T12:03:40.649Z,3.20
2023-07-06T12:06:07.040Z,3.37
2023-07-06T12:08:33.376Z,3.42
2023-07-06T12:10:59.746Z,3.24
2023-07-06T12:13:26.133Z,3.37
2023-07-06T12:15:52.537Z,3.47
2023-07-06T12:18:18.962Z,3.68
2023-07-06T12:20:45.324Z,3.51
2023-07-06T12:23:11.671Z,3.71
2023-07-06T12:25:38.034Z,3.64
2023-07-06T12:28:04.394Z,3.94
2023-07-06T12:30:30.742Z,3.82
2023-07-06T12:32:57.199Z,3.38
2023-07-06T12:35:23.570Z,3.65
2023-07-06T12:37:49.907Z,3.71
2023-07-06T12:40:16.285Z,4.12
2023-07-06T12:42:42.640Z,3.69
2023-07-06T12:45:09.634Z,3.78
2023-07-06T12:47:36.135Z,3.51
2023-07-06T12:50:02.483Z,4.02
2023-07-06T12:52:28.824Z,3.97
2023-07-06T12:54:55.215Z,3.64
2023-07-06T12:57:21.787Z,3.72
2023-07-06T12:59:48.368Z,4.09
2023-07-06T13:02:14.778Z,4.14
2023-07-06T13:04:41.196Z,3.91
2023-07-06T13:07:10.343Z,4.03
2023-07-06T13:09:36.701Z,4.19
2023-07-06T13:12:03.043Z,4.22
2023-07-06T13:14:29.396Z,4.31
2023-07-06T13:16:55.839Z,4.20
2023-07-06T13:19:22.235Z,4.37
2023-07-06T13:21:48.585Z,4.43
2023-07-06T13:24:14.959Z,4.14
2023-07-06T13:26:41.304Z,4.57
2023-07-06T13:29:07.646Z,4.43
2023-07-06T13:31:52.091Z,4.62
2023-07-06T13:34:20.323Z,4.60
2023-07-06T13:36:46.678Z,4.79
2023-07-06T13:39:13.034Z,4.66
2023-07-06T13:41:39.427Z,5.03
2023-07-06T13:44:05.811Z,5.30
2023-07-06T13:46:32.214Z,5.22
2023-07-06T13:48:58.664Z,5.41
2023-07-06T13:51:25.034Z,5.27
2023-07-06T13:53:51.370Z,6.19
2023-07-06T13:56:17.710Z,5.60
2023-07-06T13:58:44.215Z,5.02
2023-07-06T14:01:10.604Z,5.40
2023-07-06T14:03:37.031Z,4.95
2023-07-06T14:06:03.479Z,4.96
2023-07-06T14:08:29.839Z,4.96
2023-07-06T14:10:56.181Z,4.91
2023-07-06T14:13:22.590Z,5.04
2023-07-06T14:15:48.934Z,5.22
2023-07-06T14:18:15.277Z,5.56
2023-07-06T14:20:41.651Z,5.93
2023-07-06T14:23:08.006Z,5.80
2023-07-06T14:25:34.390Z,5.17
2023-07-06T14:28:00.793Z,5.34
2023-07-06T14:30:27.150Z,5.28
2023-07-06T14:32:53.526Z,5.12
2023-07-06T14:35:19.933Z,4.89
2023-07-06T14:37:46.364Z,4.91
2023-07-06T14:40:12.801Z,4.83
2023-07-06T14:42:39.192Z,4.95
2023-07-06T14:45:05.529Z,4.81
2023-07-06T14:47:31.876Z,5.33
2023-07-06T14:49:58.348Z,4.91
2023-07-06T14:52:24.734Z,5.16
2023-07-06T14:54:51.085Z,4.80
2023-07-06T14:57:17.480Z,4.82
2023-07-06T14:59:43.832Z,5.21
2023-07-06T15:02:10.173Z,4.62
2023-07-06T15:04:36.922Z,4.72
2023-07-06T15:07:03.257Z,5.08
2023-07-06T15:09:30.823Z,4.94
2023-07-06T15:11:57.308Z,4.97
2023-07-06T15:14:23.643Z,4.80
2023-07-06T15:16:50.018Z,4.79
2023-07-06T15:19:16.385Z,4.96
2023-07-06T15:21:42.711Z,4.74
2023-07-06T15:24:09.048Z,5.24
2023-07-06T15:26:35.396Z,5.28
2023-07-06T15:29:01.724Z,5.24
2023-07-06T15:31:28.073Z,5.29
2023-07-06T15:33:54.458Z,5.30
2023-07-06T15:36:20.789Z,5.10
2023-07-06T15:38:47.118Z,4.93
2023-07-06T15:41:13.467Z,5.19
2023-07-06T15:43:39.802Z,5.15
2023-07-06T15:46:06.133Z,5.12
2023-07-06T15:48:32.599Z,5.09
2023-07-06T15:50:58.983Z,5.16
2023-07-06T15:53:25.300Z,5.09
2023-07-06T15:55:51.655Z,5.20
2023-07-06T15:58:17.988Z,4.97
2023-07-06T16:00:44.349Z,4.95
2023-07-06T16:03:10.806Z,4.86
2023-07-06T16:05:37.236Z,5.00
2023-07-06T16:08:03.588Z,5.53
2023-07-06T16:10:29.964Z,5.14
2023-07-06T16:12:56.317Z,5.11
2023-07-06T16:15:22.647Z,5.09
2023-07-06T16:17:49.023Z,4.95
2023-07-06T16:20:15.352Z,4.93
2023-07-06T16:22:41.700Z,5.39
2023-07-06T16:25:08.069Z,5.13
2023-07-06T16:27:34.410Z,4.78
2023-07-06T16:30:00.745Z,5.35
2023-07-06T16:32:27.124Z,5.30
2023-07-06T16:34:53.474Z,4.89
2023-07-06T16:37:19.815Z,5.08
2023-07-06T16:39:46.177Z,4.95
2023-07-06T16:42:12.513Z,4.95
2023-07-06T16:44:38.842Z,5.25
2023-07-06T16:47:05.190Z,5.05
2023-07-06T16:49:31.530Z,5.22
2023-07-06T16:51:57.877Z,4.91
2023-07-06T16:54:24.239Z,4.82
2023-07-06T16:56:50.589Z,4.20
2023-07-06T16:59:16.896Z,2.73
2023-07-06T17:01:43.273Z,3.86
2023-07-06T17:04:09.657Z,4.88
2023-07-06T17:06:36.032Z,5.86
2023-07-06T17:09:02.380Z,5.53
2023-07-06T17:11:28.726Z,5.63
2023-07-06T17:13:55.111Z,5.53
2023-07-06T17:16:21.560Z,5.75
2023-07-06T17:18:47.906Z,5.64
2023-07-06T17:21:14.229Z,5.60
2023-07-06T17:23:40.575Z,5.69
2023-07-06T17:26:06.906Z,5.65
2023-07-06T17:28:33.389Z,5.90
2023-07-06T17:30:59.881Z,6.26
2023-07-06T17:33:26.207Z,6.28
2023-07-06T17:35:52.566Z,6.25
2023-07-06T17:38:19.034Z,6.30
2023-07-06T17:40:45.364Z,6.46
2023-07-06T17:43:11.701Z,5.88
2023-07-06T17:45:38.085Z,5.50
2023-07-06T17:48:04.505Z,5.98
2023-07-06T17:50:30.863Z,5.65
2023-07-06T17:52:57.204Z,5.67
2023-07-06T17:55:23.543Z,5.59
2023-07-06T17:57:49.873Z,5.52
2023-07-06T18:00:16.234Z,5.46
2023-07-06T18:02:42.573Z,5.49
2023-07-06T18:05:08.932Z,5.49
2023-07-06T18:07:35.269Z,5.51
2023-07-06T18:10:01.617Z,5.01
2023-07-06T18:12:27.959Z,5.41
2023-07-06T18:14:54.327Z,5.51
2023-07-06T18:17:20.671Z,5.15
2023-07-06T18:19:47.021Z,5.34
2023-07-06T18:22:13.458Z,5.24
2023-07-06T18:24:39.808Z,5.41
2023-07-06T18:27:06.188Z,5.60
2023-07-06T18:29:32.558Z,5.28
2023-07-06T18:31:58.984Z,5.12
2023-07-06T18:34:25.432Z,5.36
2023-07-06T18:36:51.827Z,5.09
2023-07-06T18:39:18.197Z,5.36
2023-07-06T18:41:44.560Z,5.21
2023-07-06T18:44:10.936Z,5.37
2023-07-06T18:46:37.293Z,5.84
2023-07-06T18:49:03.646Z,5.28
2023-07-06T18:51:30.010Z,5.35
2023-07-06T18:53:56.350Z,5.03
2023-07-06T18:56:22.718Z,5.32
2023-07-06T18:58:49.274Z,5.04
2023-07-06T19:01:15.682Z,5.43
2023-07-06T19:03:42.191Z,4.97
2023-07-06T19:06:16.100Z,5.79
2023-07-06T19:08:43.763Z,5.67
2023-07-06T19:11:10.128Z,5.40
2023-07-06T19:13:36.514Z,5.14
2023-07-06T19:16:02.898Z,5.13
2023-07-06T19:18:29.259Z,5.53
2023-07-06T19:20:55.633Z,5.31
2023-07-06T19:23:21.988Z,5.30
2023-07-06T19:25:48.386Z,5.34
2023-07-06T19:28:14.816Z,5.05
2023-07-06T19:30:41.190Z,5.54
2023-07-06T19:33:07.565Z,6.00
2023-07-06T19:35:33.915Z,5.73
2023-07-06T19:38:00.274Z,5.62
2023-07-06T19:40:26.642Z,5.74
2023-07-06T19:42:52.987Z,5.67
2023-07-06T19:45:19.329Z,5.53
2023-07-06T19:47:45.778Z,6.05
2023-07-06T19:50:12.132Z,5.68
2023-07-06T19:52:38.494Z,5.08
2023-07-06T19:55:05.986Z,5.00
2023-07-06T19:57:43.307Z,5.50
2023-07-06T20:00:11.664Z,5.66
2023-07-06T20:02:38.116Z,5.47
2023-07-06T20:05:04.497Z,5.23
2023-07-06T20:07:30.859Z,5.52
2023-07-06T20:09:57.197Z,5.38
2023-07-06T20:12:23.551Z,5.47
2023-07-06T20:14:49.939Z,5.39
2023-07-06T20:17:16.289Z,6.00
2023-07-06T20:19:42.634Z,5.71
2023-07-06T20:22:09.004Z,5.75
2023-07-06T20:24:35.408Z,5.81
2023-07-06T20:27:01.814Z,5.51
2023-07-06T20:29:28.218Z,5.40
2023-07-06T20:31:54.570Z,5.10
2023-07-06T20:34:20.919Z,4.95
2023-07-06T20:36:47.293Z,5.26
2023-07-06T20:39:13.654Z,5.53
2023-07-06T20:41:40.006Z,5.33
2023-07-06T20:44:06.368Z,5.17
2023-07-06T20:46:32.774Z,5.37
2023-07-06T20:48:59.139Z,5.28
2023-07-06T20:51:25.494Z,5.01
2023-07-06T20:53:51.839Z,4.95
2023-07-06T20:56:18.187Z,5.11
2023-07-06T20:58:44.564Z,4.86
2023-07-06T21:01:10.900Z,5.04
2023-07-06T21:03:37.278Z,4.94
2023-07-06T21:06:03.652Z,5.18
2023-07-06T21:08:29.979Z,5.23
2023-07-06T21:10:56.550Z,4.91
2023-07-06T21:13:23.142Z,4.75
2023-07-06T21:15:49.528Z,4.71
2023-07-06T21:18:15.882Z,4.73
2023-07-06T21:20:42.291Z,4.91
2023-07-06T21:23:08.649Z,4.61
2023-07-06T21:25:34.989Z,4.63
2023-07-06T21:28:01.356Z,5.16
2023-07-06T21:30:27.699Z,4.84
2023-07-06T21:32:54.108Z,4.89
2023-07-06T21:35:20.521Z,4.98
2023-07-06T21:37:46.865Z,5.17
2023-07-06T21:40:13.236Z,5.61
2023-07-06T21:42:39.613Z,5.45
2023-07-06T21:45:05.983Z,5.36
2023-07-06T21:47:32.394Z,5.20
2023-07-06T21:49:58.783Z,5.33
2023-07-06T21:52:25.121Z,5.80
2023-07-06T21:54:51.482Z,5.54
2023-07-06T21:57:17.855Z,5.55
2023-07-06T21:59:44.209Z,5.81
2023-07-06T22:02:10.550Z,5.80
2023-07-06T22:04:36.914Z,5.60
2023-07-06T22:07:03.271Z,5.79
2023-07-06T22:09:29.650Z,5.55
2023-07-06T22:11:56.028Z,6.13
2023-07-06T22:14:22.368Z,5.84
2023-07-06T22:16:48.769Z,5.83
2023-07-06T22:19:15.137Z,6.02
2023-07-06T22:21:41.475Z,5.77
2023-07-06T22:24:07.830Z,5.95
2023-07-06T22:26:34.193Z,5.79
2023-07-06T22:29:00.539Z,5.72
2023-07-06T22:31:26.931Z,5.60
2023-07-06T22:33:53.397Z,6.13
2023-07-06T22:36:19.743Z,5.78
2023-07-06T22:38:46.130Z,6.05
2023-07-06T22:41:12.572Z,6.31
2023-07-06T22:43:38.940Z,5.59
2023-07-06T22:46:05.343Z,5.73
2023-07-06T22:48:31.745Z,5.74
2023-07-06T22:50:58.163Z,5.93
2023-07-06T22:53:24.568Z,6.10
2023-07-06T22:55:50.938Z,6.10
2023-07-06T22:58:17.310Z,5.72
2023-07-06T23:00:43.655Z,5.92
2023-07-06T23:03:10.132Z,5.94
2023-07-06T23:05:36.549Z,5.77
2023-07-06T23:08:02.890Z,5.66
2023-07-06T23:10:29.259Z,5.89
2023-07-06T23:12:55.617Z,6.31
2023-07-06T23:15:21.975Z,5.89
2023-07-06T23:17:48.409Z,5.76
2023-07-06T23:20:14.801Z,5.80
2023-07-06T23:22:41.157Z,5.99
2023-07-06T23:25:07.527Z,5.55
2023-07-06T23:27:33.877Z,5.66
2023-07-06T23:30:00.275Z,5.59
2023-07-06T23:32:26.685Z,5.34
2023-07-06T23:34:53.062Z,5.74
2023-07-06T23:37:19.396Z,5.62
2023-07-06T23:39:45.749Z,5.47
2023-07-06T23:42:12.108Z,5.39
2023-07-06T23:44:38.461Z,5.54
2023-07-06T23:47:05.013Z,5.41
2023-07-06T23:49:31.349Z,5.32
2023-07-06T23:51:57.696Z,5.55
2023-07-06T23:54:24.122Z,5.40
2023-07-06T23:56:50.533Z,4.95
2023-07-06T23:59:16.884Z,5.25
